sensor_id;sensor_type;location;lat;lon;timestamp;pressure;altitude;pressure_sealevel;temperature;humidity
23733;BME280;12047;53.450;-2.286;2023-01-30T00:02:17;101613.69;;;12.49;100.00
23733;BME280;12047;53.450;-2.286;2023-01-30T00:07:19;101624.06;;;12.52;100.00
23733;BME280;12047;53.450;-2.286;2023-01-30T00:12:20;101619.72;;;12.19;100.00
23733;BME280;12047;53.450;-2.286;2023-01-30T00:17:21;101621.53;;;12.51;100.00
23733;BME280;12047;53.450;-2.286;2023-01-30T00:22:24;101625.34;;;12.37;100.00
23733;BME280;12047;53.450;-2.286;2023-01-30T00:27:28;101631.84;;;12.12;100.00
23733;BME280;12047;53.450;-2.286;2023-01-30T00:32:32;101621.03;;;12.25;100.00
23733;BME280;12047;53.450;-2.286;2023-01-30T00:37:33;101638.88;;;11.91;100.00
23733;BME280;12047;53.450;-2.286;2023-01-30T00:42:34;101643.22;;;12.03;100.00
23733;BME280;12047;53.450;-2.286;2023-01-30T00:47:59;101642.50;;;12.01;100.00
23733;BME280;12047;53.450;-2.286;2023-01-30T00:53:03;101654.03;;;12.22;100.00
23733;BME280;12047;53.450;-2.286;2023-01-30T00:58:03;101642.00;;;12.07;100.00
23733;BME280;12047;53.450;-2.286;2023-01-30T01:03:04;101630.72;;;11.83;100.00
23733;BME280;12047;53.450;-2.286;2023-01-30T01:08:05;101628.66;;;11.53;100.00
23733;BME280;12047;53.450;-2.286;2023-01-30T01:13:13;101629.56;;;11.97;100.00
23733;BME280;12047;53.450;-2.286;2023-01-30T01:18:14;101642.19;;;11.83;100.00
23733;BME280;12047;53.450;-2.286;2023-01-30T01:23:15;101647.81;;;12.01;100.00
23733;BME280;12047;53.450;-2.286;2023-01-30T01:28:15;101649.69;;;12.21;100.00
23733;BME280;12047;53.450;-2.286;2023-01-30T01:33:20;101654.75;;;12.13;100.00
23733;BME280;12047;53.450;-2.286;2023-01-30T01:38:21;101660.16;;;11.80;100.00
23733;BME280;12047;53.450;-2.286;2023-01-30T01:43:24;101655.56;;;11.48;100.00
23733;BME280;12047;53.450;-2.286;2023-01-30T01:48:29;101659.63;;;11.97;100.00
23733;BME280;12047;53.450;-2.286;2023-01-30T01:53:42;101654.13;;;11.55;100.00
23733;BME280;12047;53.450;-2.286;2023-01-30T01:58:54;101653.38;;;11.76;100.00
23733;BME280;12047;53.450;-2.286;2023-01-30T02:03:59;101666.44;;;11.56;100.00
23733;BME280;12047;53.450;-2.286;2023-01-30T02:09:04;101661.09;;;11.68;100.00
23733;BME280;12047;53.450;-2.286;2023-01-30T02:14:06;101674.53;;;11.77;100.00
23733;BME280;12047;53.450;-2.286;2023-01-30T02:25:00;101692.00;;;11.46;100.00
23733;BME280;12047;53.450;-2.286;2023-01-30T02:35:25;101688.84;;;11.41;100.00
23733;BME280;12047;53.450;-2.286;2023-01-30T02:40:45;101696.56;;;11.67;100.00
23733;BME280;12047;53.450;-2.286;2023-01-30T02:45:53;101693.81;;;11.68;100.00
23733;BME280;12047;53.450;-2.286;2023-01-30T02:56:25;101683.28;;;11.67;100.00
23733;BME280;12047;53.450;-2.286;2023-01-30T03:16:53;101669.19;;;11.33;100.00
23733;BME280;12047;53.450;-2.286;2023-01-30T03:21:55;101678.72;;;11.35;100.00
23733;BME280;12047;53.450;-2.286;2023-01-30T03:27:05;101686.25;;;11.86;100.00
23733;BME280;12047;53.450;-2.286;2023-01-30T03:32:07;101676.56;;;11.63;100.00
23733;BME280;12047;53.450;-2.286;2023-01-30T03:37:08;101677.06;;;11.79;100.00
23733;BME280;12047;53.450;-2.286;2023-01-30T03:42:11;101668.31;;;11.10;100.00
23733;BME280;12047;53.450;-2.286;2023-01-30T03:47:11;101666.19;;;11.59;100.00
23733;BME280;12047;53.450;-2.286;2023-01-30T03:52:12;101676.06;;;11.69;100.00
23733;BME280;12047;53.450;-2.286;2023-01-30T03:57:13;101683.69;;;11.62;100.00
23733;BME280;12047;53.450;-2.286;2023-01-30T04:02:13;101701.28;;;11.41;100.00
23733;BME280;12047;53.450;-2.286;2023-01-30T04:07:23;101697.41;;;11.67;100.00
23733;BME280;12047;53.450;-2.286;2023-01-30T04:12:24;101706.97;;;11.58;100.00
23733;BME280;12047;53.450;-2.286;2023-01-30T04:17:24;101705.66;;;11.86;100.00
23733;BME280;12047;53.450;-2.286;2023-01-30T04:22:48;101706.75;;;11.84;100.00
23733;BME280;12047;53.450;-2.286;2023-01-30T04:27:49;101713.47;;;11.43;100.00
23733;BME280;12047;53.450;-2.286;2023-01-30T04:32:50;101726.25;;;11.38;100.00
23733;BME280;12047;53.450;-2.286;2023-01-30T04:37:53;101704.66;;;11.65;100.00
23733;BME280;12047;53.450;-2.286;2023-01-30T04:42:54;101711.78;;;11.65;100.00
23733;BME280;12047;53.450;-2.286;2023-01-30T04:47:57;101720.41;;;11.79;100.00
23733;BME280;12047;53.450;-2.286;2023-01-30T04:52:58;101732.41;;;11.50;100.00
23733;BME280;12047;53.450;-2.286;2023-01-30T04:58:02;101759.78;;;11.39;100.00
23733;BME280;12047;53.450;-2.286;2023-01-30T05:03:03;101759.53;;;11.42;100.00
23733;BME280;12047;53.450;-2.286;2023-01-30T05:08:03;101766.19;;;11.37;100.00
23733;BME280;12047;53.450;-2.286;2023-01-30T05:13:05;101779.03;;;11.19;100.00
23733;BME280;12047;53.450;-2.286;2023-01-30T05:18:13;101786.25;;;11.74;100.00
23733;BME280;12047;53.450;-2.286;2023-01-30T05:23:17;101799.66;;;11.62;100.00
23733;BME280;12047;53.450;-2.286;2023-01-30T05:28:20;101808.34;;;11.75;100.00
23733;BME280;12047;53.450;-2.286;2023-01-30T05:33:32;101818.00;;;11.76;100.00
23733;BME280;12047;53.450;-2.286;2023-01-30T05:38:57;101814.06;;;11.35;100.00
23733;BME280;12047;53.450;-2.286;2023-01-30T05:44:20;101802.66;;;11.68;100.00
23733;BME280;12047;53.450;-2.286;2023-01-30T05:49:20;101793.78;;;11.34;100.00
23733;BME280;12047;53.450;-2.286;2023-01-30T05:54:21;101798.59;;;11.29;100.00
23733;BME280;12047;53.450;-2.286;2023-01-30T05:59:21;101808.66;;;11.37;100.00
23733;BME280;12047;53.450;-2.286;2023-01-30T06:04:25;101814.06;;;11.35;100.00
23733;BME280;12047;53.450;-2.286;2023-01-30T06:09:25;101833.63;;;11.45;100.00
23733;BME280;12047;53.450;-2.286;2023-01-30T06:14:29;101859.31;;;11.80;100.00
23733;BME280;12047;53.450;-2.286;2023-01-30T06:19:30;101871.41;;;11.84;100.00
23733;BME280;12047;53.450;-2.286;2023-01-30T06:24:31;101875.69;;;12.31;100.00
23733;BME280;12047;53.450;-2.286;2023-01-30T06:29:32;101884.84;;;12.27;100.00
23733;BME280;12047;53.450;-2.286;2023-01-30T06:34:50;101894.63;;;12.04;100.00
23733;BME280;12047;53.450;-2.286;2023-01-30T06:39:53;101907.91;;;12.04;100.00
23733;BME280;12047;53.450;-2.286;2023-01-30T06:44:54;101908.50;;;11.97;100.00
23733;BME280;12047;53.450;-2.286;2023-01-30T06:49:54;101909.56;;;11.94;100.00
23733;BME280;12047;53.450;-2.286;2023-01-30T06:54:57;101908.00;;;11.91;100.00
23733;BME280;12047;53.450;-2.286;2023-01-30T06:59:58;101918.84;;;11.65;100.00
23733;BME280;12047;53.450;-2.286;2023-01-30T07:05:01;101920.22;;;12.16;100.00
23733;BME280;12047;53.450;-2.286;2023-01-30T07:10:11;101927.69;;;12.00;100.00
23733;BME280;12047;53.450;-2.286;2023-01-30T07:15:17;101928.38;;;11.80;100.00
23733;BME280;12047;53.450;-2.286;2023-01-30T07:20:18;101918.09;;;11.51;100.00
23733;BME280;12047;53.450;-2.286;2023-01-30T07:25:20;101910.56;;;11.69;100.00
23733;BME280;12047;53.450;-2.286;2023-01-30T07:30:21;101939.00;;;11.91;100.00
23733;BME280;12047;53.450;-2.286;2023-01-30T07:35:33;101941.53;;;11.81;100.00
23733;BME280;12047;53.450;-2.286;2023-01-30T07:47:03;101948.66;;;11.81;100.00
23733;BME280;12047;53.450;-2.286;2023-01-30T07:52:26;101960.03;;;11.35;100.00
23733;BME280;12047;53.450;-2.286;2023-01-30T07:57:28;101960.28;;;11.43;100.00
23733;BME280;12047;53.450;-2.286;2023-01-30T08:02:34;101974.75;;;11.87;100.00
23733;BME280;12047;53.450;-2.286;2023-01-30T08:07:35;101983.47;;;12.00;100.00
23733;BME280;12047;53.450;-2.286;2023-01-30T08:12:36;101997.44;;;11.43;100.00
23733;BME280;12047;53.450;-2.286;2023-01-30T08:17:36;102013.59;;;11.88;100.00
23733;BME280;12047;53.450;-2.286;2023-01-30T08:22:37;102026.94;;;11.99;100.00
23733;BME280;12047;53.450;-2.286;2023-01-30T08:27:38;102014.63;;;11.74;100.00
23733;BME280;12047;53.450;-2.286;2023-01-30T08:32:38;102022.28;;;11.79;100.00
23733;BME280;12047;53.450;-2.286;2023-01-30T08:37:42;102042.34;;;11.46;100.00
23733;BME280;12047;53.450;-2.286;2023-01-30T08:42:43;102046.19;;;11.66;100.00
23733;BME280;12047;53.450;-2.286;2023-01-30T08:47:47;102056.91;;;11.77;100.00
23733;BME280;12047;53.450;-2.286;2023-01-30T08:52:47;102066.47;;;12.15;100.00
23733;BME280;12047;53.450;-2.286;2023-01-30T08:57:48;102070.38;;;12.57;100.00
23733;BME280;12047;53.450;-2.286;2023-01-30T09:02:53;102079.38;;;12.32;100.00
23733;BME280;12047;53.450;-2.286;2023-01-30T09:07:53;102080.84;;;12.36;100.00
23733;BME280;12047;53.450;-2.286;2023-01-30T09:12:54;102089.56;;;12.49;100.00
23733;BME280;12047;53.450;-2.286;2023-01-30T09:17:55;102103.41;;;12.31;100.00
23733;BME280;12047;53.450;-2.286;2023-01-30T09:22:55;102119.50;;;12.86;100.00
23733;BME280;12047;53.450;-2.286;2023-01-30T09:27:56;102133.63;;;12.87;100.00
23733;BME280;12047;53.450;-2.286;2023-01-30T09:32:56;102136.81;;;13.70;100.00
23733;BME280;12047;53.450;-2.286;2023-01-30T09:37:57;102129.72;;;13.37;100.00
23733;BME280;12047;53.450;-2.286;2023-01-30T09:43:11;102145.53;;;13.05;100.00
23733;BME280;12047;53.450;-2.286;2023-01-30T09:53:38;102159.41;;;12.98;100.00
23733;BME280;12047;53.450;-2.286;2023-01-30T09:58:48;102155.63;;;13.35;100.00
23733;BME280;12047;53.450;-2.286;2023-01-30T10:04:01;102149.47;;;13.35;100.00
23733;BME280;12047;53.450;-2.286;2023-01-30T10:09:12;102155.03;;;12.74;100.00
23733;BME280;12047;53.450;-2.286;2023-01-30T10:14:38;102158.97;;;13.15;100.00
23733;BME280;12047;53.450;-2.286;2023-01-30T10:20:13;102145.69;;;13.37;100.00
23733;BME280;12047;53.450;-2.286;2023-01-30T10:30:32;102161.91;;;13.56;100.00
23733;BME280;12047;53.450;-2.286;2023-01-30T10:35:35;102178.38;;;13.39;100.00
23733;BME280;12047;53.450;-2.286;2023-01-30T10:40:51;102174.84;;;13.61;100.00
23733;BME280;12047;53.450;-2.286;2023-01-30T10:51:10;102186.81;;;13.89;100.00
23733;BME280;12047;53.450;-2.286;2023-01-30T11:01:51;102171.94;;;13.42;100.00
23733;BME280;12047;53.450;-2.286;2023-01-30T11:06:56;102161.06;;;13.45;100.00
23733;BME280;12047;53.450;-2.286;2023-01-30T11:11:58;102176.13;;;14.00;100.00
23733;BME280;12047;53.450;-2.286;2023-01-30T11:16:59;102178.69;;;14.02;100.00
23733;BME280;12047;53.450;-2.286;2023-01-30T11:22:03;102201.38;;;13.62;100.00
23733;BME280;12047;53.450;-2.286;2023-01-30T11:27:24;102219.50;;;14.02;100.00
23733;BME280;12047;53.450;-2.286;2023-01-30T11:32:27;102224.59;;;14.05;100.00
23733;BME280;12047;53.450;-2.286;2023-01-30T11:37:38;102228.38;;;13.47;100.00
23733;BME280;12047;53.450;-2.286;2023-01-30T11:42:43;102232.34;;;13.86;100.00
23733;BME280;12047;53.450;-2.286;2023-01-30T11:47:57;102231.75;;;13.49;100.00
23733;BME280;12047;53.450;-2.286;2023-01-30T11:53:02;102230.41;;;13.88;100.00
23733;BME280;12047;53.450;-2.286;2023-01-30T11:58:07;102209.22;;;13.86;100.00
23733;BME280;12047;53.450;-2.286;2023-01-30T12:03:17;102227.03;;;13.75;100.00
23733;BME280;12047;53.450;-2.286;2023-01-30T12:08:23;102222.44;;;13.43;100.00
23733;BME280;12047;53.450;-2.286;2023-01-30T12:13:37;102228.25;;;13.71;100.00
23733;BME280;12047;53.450;-2.286;2023-01-30T12:19:10;102213.09;;;13.93;100.00
23733;BME280;12047;53.450;-2.286;2023-01-30T12:34:50;102223.72;;;14.16;100.00
23733;BME280;12047;53.450;-2.286;2023-01-30T12:40:10;102226.53;;;14.03;100.00
23733;BME280;12047;53.450;-2.286;2023-01-30T12:45:28;102218.78;;;14.00;100.00
23733;BME280;12047;53.450;-2.286;2023-01-30T12:56:40;102219.88;;;13.64;100.00
23733;BME280;12047;53.450;-2.286;2023-01-30T13:32:25;102230.38;;;14.21;100.00
23733;BME280;12047;53.450;-2.286;2023-01-30T13:37:54;102222.75;;;14.17;100.00
23733;BME280;12047;53.450;-2.286;2023-01-30T13:49:28;102230.66;;;13.96;100.00
23733;BME280;12047;53.450;-2.286;2023-01-30T14:10:52;102214.84;;;14.26;100.00
23733;BME280;12047;53.450;-2.286;2023-01-30T14:16:00;102221.81;;;14.39;100.00
23733;BME280;12047;53.450;-2.286;2023-01-30T14:26:16;102204.25;;;13.93;100.00
23733;BME280;12047;53.450;-2.286;2023-01-30T14:31:54;102215.28;;;13.77;100.00
23733;BME280;12047;53.450;-2.286;2023-01-30T14:36:55;102234.31;;;13.73;100.00
23733;BME280;12047;53.450;-2.286;2023-01-30T14:42:27;102235.00;;;14.08;100.00
23733;BME280;12047;53.450;-2.286;2023-01-30T14:47:29;102243.00;;;13.86;100.00
23733;BME280;12047;53.450;-2.286;2023-01-30T14:52:39;102230.66;;;13.96;100.00
23733;BME280;12047;53.450;-2.286;2023-01-30T14:57:53;102231.44;;;14.30;100.00
23733;BME280;12047;53.450;-2.286;2023-01-30T15:03:03;102237.91;;;14.05;100.00
23733;BME280;12047;53.450;-2.286;2023-01-30T15:08:13;102235.38;;;14.04;100.00
23733;BME280;12047;53.450;-2.286;2023-01-30T15:18:58;102268.22;;;13.82;100.00
23733;BME280;12047;53.450;-2.286;2023-01-30T15:24:15;102255.00;;;13.69;100.00
23733;BME280;12047;53.450;-2.286;2023-01-30T15:34:31;102260.91;;;13.39;100.00
23733;BME280;12047;53.450;-2.286;2023-01-30T15:39:44;102255.84;;;13.47;100.00
23733;BME280;12047;53.450;-2.286;2023-01-30T15:44:56;102275.69;;;13.43;100.00
23733;BME280;12047;53.450;-2.286;2023-01-30T15:50:07;102274.50;;;13.58;100.00
23733;BME280;12047;53.450;-2.286;2023-01-30T15:55:19;102283.28;;;13.25;100.00
23733;BME280;12047;53.450;-2.286;2023-01-30T16:00:29;102281.72;;;13.34;100.00
23733;BME280;12047;53.450;-2.286;2023-01-30T16:05:35;102281.88;;;13.09;100.00
23733;BME280;12047;53.450;-2.286;2023-01-30T16:10:43;102285.47;;;13.43;100.00
23733;BME280;12047;53.450;-2.286;2023-01-30T16:20:56;102298.56;;;13.46;100.00
23733;BME280;12047;53.450;-2.286;2023-01-30T16:25:58;102299.78;;;13.07;100.00
23733;BME280;12047;53.450;-2.286;2023-01-30T16:31:02;102303.41;;;12.82;100.00
23733;BME280;12047;53.450;-2.286;2023-01-30T16:36:06;102310.81;;;12.66;100.00
23733;BME280;12047;53.450;-2.286;2023-01-30T16:41:29;102306.19;;;12.80;100.00
23733;BME280;12047;53.450;-2.286;2023-01-30T16:51:40;102320.22;;;12.82;100.00
23733;BME280;12047;53.450;-2.286;2023-01-30T16:57:03;102329.94;;;12.71;100.00
23733;BME280;12047;53.450;-2.286;2023-01-30T17:02:18;102319.63;;;12.90;100.00
23733;BME280;12047;53.450;-2.286;2023-01-30T17:14:16;102333.50;;;13.30;100.00
23733;BME280;12047;53.450;-2.286;2023-01-30T17:19:42;102342.59;;;13.27;100.00
23733;BME280;12047;53.450;-2.286;2023-01-30T17:25:30;102341.53;;;13.41;100.00
23733;BME280;12047;53.450;-2.286;2023-01-30T17:31:19;102350.28;;;13.54;100.00
23733;BME280;12047;53.450;-2.286;2023-01-30T17:36:24;102343.44;;;13.39;100.00
23733;BME280;12047;53.450;-2.286;2023-01-30T17:41:30;102342.34;;;13.07;100.00
23733;BME280;12047;53.450;-2.286;2023-01-30T17:46:52;102343.75;;;13.00;100.00
23733;BME280;12047;53.450;-2.286;2023-01-30T17:58:01;102341.72;;;13.03;100.00
23733;BME280;12047;53.450;-2.286;2023-01-30T18:03:28;102341.31;;;12.97;100.00
23733;BME280;12047;53.450;-2.286;2023-01-30T18:14:18;102348.31;;;13.45;100.00
23733;BME280;12047;53.450;-2.286;2023-01-30T18:19:19;102345.97;;;13.30;100.00
23733;BME280;12047;53.450;-2.286;2023-01-30T18:30:56;102338.16;;;13.15;100.00
23733;BME280;12047;53.450;-2.286;2023-01-30T18:36:11;102319.06;;;12.98;100.00
23733;BME280;12047;53.450;-2.286;2023-01-30T18:41:39;102334.88;;;13.47;100.00
23733;BME280;12047;53.450;-2.286;2023-01-30T18:46:48;102322.69;;;13.20;100.00
23733;BME280;12047;53.450;-2.286;2023-01-30T18:52:28;102319.69;;;13.25;100.00
23733;BME280;12047;53.450;-2.286;2023-01-30T18:57:29;102326.91;;;13.47;100.00
23733;BME280;12047;53.450;-2.286;2023-01-30T19:02:41;102317.88;;;13.25;100.00
23733;BME280;12047;53.450;-2.286;2023-01-30T19:07:49;102310.41;;;13.42;100.00
23733;BME280;12047;53.450;-2.286;2023-01-30T19:12:50;102303.00;;;12.99;100.00
23733;BME280;12047;53.450;-2.286;2023-01-30T19:18:10;102306.66;;;13.33;100.00
23733;BME280;12047;53.450;-2.286;2023-01-30T19:23:30;102298.41;;;13.25;100.00
23733;BME280;12047;53.450;-2.286;2023-01-30T19:28:48;102301.09;;;13.36;100.00
23733;BME280;12047;53.450;-2.286;2023-01-30T19:33:55;102294.19;;;12.51;100.00
23733;BME280;12047;53.450;-2.286;2023-01-30T19:39:08;102281.44;;;12.67;100.00
23733;BME280;12047;53.450;-2.286;2023-01-30T19:44:11;102260.91;;;12.69;100.00
23733;BME280;12047;53.450;-2.286;2023-01-30T19:49:14;102269.50;;;12.73;100.00
23733;BME280;12047;53.450;-2.286;2023-01-30T19:54:15;102278.03;;;12.89;100.00
23733;BME280;12047;53.450;-2.286;2023-01-30T19:59:23;102277.66;;;12.82;100.00
23733;BME280;12047;53.450;-2.286;2023-01-30T20:04:42;102279.41;;;12.47;100.00
23733;BME280;12047;53.450;-2.286;2023-01-30T20:09:43;102277.09;;;12.06;100.00
23733;BME280;12047;53.450;-2.286;2023-01-30T20:14:47;102274.16;;;12.34;100.00
23733;BME280;12047;53.450;-2.286;2023-01-30T20:19:48;102262.25;;;12.27;100.00
23733;BME280;12047;53.450;-2.286;2023-01-30T20:24:49;102246.31;;;12.51;100.00
23733;BME280;12047;53.450;-2.286;2023-01-30T20:30:39;102257.47;;;12.32;100.00
23733;BME280;12047;53.450;-2.286;2023-01-30T20:35:50;102250.06;;;12.48;100.00
23733;BME280;12047;53.450;-2.286;2023-01-30T20:40:59;102232.34;;;12.12;100.00
23733;BME280;12047;53.450;-2.286;2023-01-30T20:46:13;102236.75;;;12.24;100.00
23733;BME280;12047;53.450;-2.286;2023-01-30T20:51:30;102235.34;;;11.95;100.00
23733;BME280;12047;53.450;-2.286;2023-01-30T20:56:39;102240.56;;;12.33;100.00
23733;BME280;12047;53.450;-2.286;2023-01-30T21:01:42;102231.06;;;12.05;100.00
23733;BME280;12047;53.450;-2.286;2023-01-30T21:06:44;102219.63;;;11.92;100.00
23733;BME280;12047;53.450;-2.286;2023-01-30T21:11:46;102220.69;;;12.50;100.00
23733;BME280;12047;53.450;-2.286;2023-01-30T21:16:47;102229.91;;;12.09;100.00
23733;BME280;12047;53.450;-2.286;2023-01-30T21:21:53;102210.94;;;12.38;100.00
23733;BME280;12047;53.450;-2.286;2023-01-30T21:26:55;102208.59;;;12.22;100.00
23733;BME280;12047;53.450;-2.286;2023-01-30T21:31:56;102205.91;;;12.46;100.00
23733;BME280;12047;53.450;-2.286;2023-01-30T21:37:00;102206.19;;;12.06;100.00
23733;BME280;12047;53.450;-2.286;2023-01-30T21:42:21;102181.56;;;12.28;100.00
23733;BME280;12047;53.450;-2.286;2023-01-30T21:47:54;102182.56;;;12.38;100.00
23733;BME280;12047;53.450;-2.286;2023-01-30T21:52:55;102167.34;;;11.92;100.00
23733;BME280;12047;53.450;-2.286;2023-01-30T21:57:56;102163.16;;;12.01;100.00
23733;BME280;12047;53.450;-2.286;2023-01-30T22:02:59;102153.84;;;11.96;100.00
23733;BME280;12047;53.450;-2.286;2023-01-30T22:08:00;102138.75;;;11.59;100.00
23733;BME280;12047;53.450;-2.286;2023-01-30T22:13:01;102131.94;;;11.55;100.00
23733;BME280;12047;53.450;-2.286;2023-01-30T22:18:01;102128.41;;;12.04;100.00
23733;BME280;12047;53.450;-2.286;2023-01-30T22:23:08;102143.53;;;11.91;100.00
23733;BME280;12047;53.450;-2.286;2023-01-30T22:28:09;102125.75;;;12.28;100.00
23733;BME280;12047;53.450;-2.286;2023-01-30T22:33:09;102123.97;;;12.40;100.00
23733;BME280;12047;53.450;-2.286;2023-01-30T22:38:22;102134.00;;;12.36;100.00
23733;BME280;12047;53.450;-2.286;2023-01-30T22:43:34;102131.22;;;12.14;100.00
23733;BME280;12047;53.450;-2.286;2023-01-30T22:48:39;102132.03;;;12.03;100.00
23733;BME280;12047;53.450;-2.286;2023-01-30T22:53:42;102127.19;;;12.56;100.00
23733;BME280;12047;53.450;-2.286;2023-01-30T22:58:46;102122.44;;;12.48;100.00
23733;BME280;12047;53.450;-2.286;2023-01-30T23:03:53;102121.19;;;12.06;100.00
23733;BME280;12047;53.450;-2.286;2023-01-30T23:09:00;102104.28;;;12.07;100.00
23733;BME280;12047;53.450;-2.286;2023-01-30T23:14:14;102108.31;;;11.64;100.00
23733;BME280;12047;53.450;-2.286;2023-01-30T23:19:17;102097.91;;;11.86;100.00
23733;BME280;12047;53.450;-2.286;2023-01-30T23:24:19;102086.25;;;12.00;100.00
23733;BME280;12047;53.450;-2.286;2023-01-30T23:29:23;102079.47;;;11.59;100.00
23733;BME280;12047;53.450;-2.286;2023-01-30T23:34:27;102069.63;;;11.85;100.00
23733;BME280;12047;53.450;-2.286;2023-01-30T23:39:36;102062.97;;;12.03;100.00
23733;BME280;12047;53.450;-2.286;2023-01-30T23:44:45;102061.16;;;11.80;100.00
23733;BME280;12047;53.450;-2.286;2023-01-30T23:49:45;102054.03;;;12.04;100.00
23733;BME280;12047;53.450;-2.286;2023-01-30T23:54:46;102064.56;;;11.82;100.00
23733;BME280;12047;53.450;-2.286;2023-01-30T23:59:47;102062.06;;;12.26;100.00
